Time;durP1;ratioP1;P1;durP2;ratioP2;P2;SDS_P1;SDS_P2;PMS_P1;PMS_P2;Temp;Humidity;BMP_temperature;BMP_pressure;BME280_temperature;BME280_humidity;BME280_pressure;Samples;Min_cycle;Max_cycle;Signal;HPM_P1;HPM_P2
2020/12/03 00:00:41;;;;;;;84.72;27.35;;;-5.20;99.90;;;;;;5052184;28;20031;-77
2020/12/03 00:03:21;;;;;;;64.82;22.88;;;-5.30;99.90;;;;;;5053300;28;20437;-77
2020/12/03 00:05:55;;;;;;;79.95;28.52;;;-5.30;99.90;;;;;;5053419;28;20021;-77
2020/12/03 00:08:22;;;;;;;84.03;28.25;;;-5.20;99.90;;;;;;5053314;28;20017;-77
2020/12/03 00:10:47;;;;;;;90.10;31.27;;;-5.20;99.90;;;;;;5051980;28;20025;-77
2020/12/03 00:13:20;;;;;;;86.28;29.33;;;-5.20;99.90;;;;;;5051862;28;20016;-77
2020/12/03 00:15:54;;;;;;;77.25;30.02;;;-5.30;99.90;;;;;;5051982;28;20032;-77
2020/12/03 00:18:20;;;;;;;80.38;27.98;;;-5.20;99.90;;;;;;5060702;28;20028;-77
2020/12/03 00:20:47;;;;;;;89.25;32.13;;;-5.30;99.90;;;;;;5073096;28;20021;-77
2020/12/03 00:23:13;;;;;;;85.55;29.73;;;-5.30;99.90;;;;;;5072675;28;20029;-77
2020/12/03 00:25:38;;;;;;;108.82;32.65;;;-5.30;99.90;;;;;;5073065;28;20016;-78
2020/12/03 00:28:05;;;;;;;89.15;30.92;;;-5.40;99.90;;;;;;5070937;28;20020;-78
2020/12/03 00:30:30;;;;;;;81.30;25.83;;;-5.40;99.90;;;;;;5072744;28;20108;-77
2020/12/03 00:32:56;;;;;;;95.50;32.08;;;-5.40;99.90;;;;;;5071531;28;20111;-77
2020/12/03 00:35:23;;;;;;;84.22;34.03;;;-5.40;99.90;;;;;;5072998;28;20029;-77
2020/12/03 00:37:50;;;;;;;93.20;31.92;;;-5.40;99.90;;;;;;5072925;28;20024;-77
2020/12/03 00:40:17;;;;;;;91.78;31.13;;;-5.40;99.90;;;;;;5071637;28;20032;-77
2020/12/03 00:42:43;;;;;;;93.28;29.42;;;-5.50;99.90;;;;;;5072761;28;20115;-77
2020/12/03 00:45:10;;;;;;;96.03;35.30;;;-5.50;99.90;;;;;;5072426;28;20105;-77
2020/12/03 00:47:38;;;;;;;96.88;31.85;;;-5.60;99.90;;;;;;5071010;28;20027;-77
2020/12/03 00:50:06;;;;;;;87.93;28.23;;;-5.60;99.90;;;;;;5071452;28;20526;-77
2020/12/03 00:52:31;;;;;;;100.30;34.58;;;-5.60;99.90;;;;;;5072730;28;20020;-77
2020/12/03 00:54:57;;;;;;;108.95;37.75;;;-5.60;99.90;;;;;;5071766;28;20561;-77
2020/12/03 00:57:23;;;;;;;99.80;36.72;;;-5.70;99.90;;;;;;5072698;28;20024;-77
2020/12/03 00:59:48;;;;;;;89.57;31.30;;;-5.70;99.90;;;;;;5071450;28;20029;-77
2020/12/03 01:02:15;;;;;;;80.23;28.53;;;-5.80;99.90;;;;;;5072517;28;20032;-76
2020/12/03 01:04:42;;;;;;;86.75;27.92;;;-5.80;99.90;;;;;;5071406;28;20075;-77
2020/12/03 01:07:08;;;;;;;99.30;33.63;;;-5.80;99.90;;;;;;5072515;28;20032;-77
2020/12/03 01:09:38;;;;;;;100.25;31.23;;;-5.80;99.90;;;;;;5072674;28;20128;-77
2020/12/03 01:12:09;;;;;;;80.13;27.53;;;-5.90;99.90;;;;;;5071174;28;20302;-77
2020/12/03 01:14:35;;;;;;;93.57;32.38;;;-5.90;99.90;;;;;;5072598;28;20386;-77
2020/12/03 01:17:07;;;;;;;88.82;30.15;;;-6.00;99.90;;;;;;5070926;28;20025;-77
2020/12/03 01:19:33;;;;;;;99.20;34.88;;;-6.10;99.90;;;;;;5072639;28;20024;-77
2020/12/03 01:21:59;;;;;;;107.65;32.65;;;-6.10;99.90;;;;;;5072711;28;20042;-77
2020/12/03 01:24:25;;;;;;;96.83;33.30;;;-6.10;99.90;;;;;;5071150;28;20037;-77
2020/12/03 01:26:50;;;;;;;85.00;34.27;;;-6.10;99.90;;;;;;5072312;28;20036;-77
2020/12/03 01:29:19;;;;;;;118.53;37.67;;;-6.10;99.90;;;;;;5072445;28;20017;-77
2020/12/03 01:31:45;;;;;;;110.47;37.15;;;-6.00;99.90;;;;;;5071054;28;20029;-77
2020/12/03 01:34:11;;;;;;;102.90;36.58;;;-6.00;99.90;;;;;;5072361;28;20056;-77
2020/12/03 01:36:37;;;;;;;115.43;36.30;;;-6.00;99.90;;;;;;5071039;28;20025;-77
2020/12/03 01:39:04;;;;;;;95.82;36.50;;;-5.90;99.90;;;;;;5071050;28;20025;-77
2020/12/03 01:41:30;;;;;;;104.10;37.80;;;-6.00;99.90;;;;;;5071038;28;20386;-77
2020/12/03 01:43:55;;;;;;;107.43;34.47;;;-5.90;99.90;;;;;;5071827;28;20047;-77
2020/12/03 01:46:21;;;;;;;91.00;34.97;;;-5.90;99.90;;;;;;5070722;28;20481;-77
2020/12/03 01:49:02;;;;;;;98.70;33.70;;;-5.90;99.90;;;;;;5070965;28;20031;-77
2020/12/03 01:51:35;;;;;;;91.80;33.93;;;-6.00;99.90;;;;;;5072529;28;20025;-77
2020/12/03 01:54:04;;;;;;;89.97;32.60;;;-6.10;99.90;;;;;;5072232;28;20017;-77
2020/12/03 01:56:51;;;;;;;91.72;33.20;;;-6.20;99.90;;;;;;5072120;28;20025;-77
2020/12/03 01:59:18;;;;;;;94.72;28.10;;;-6.20;99.90;;;;;;5075792;28;20048;-77
2020/12/03 02:01:44;;;;;;;88.67;30.33;;;-6.30;99.90;;;;;;5075651;28;20390;-76
2020/12/03 02:04:10;;;;;;;99.60;36.25;;;-6.40;99.90;;;;;;5074292;28;20032;-77
2020/12/03 02:06:39;;;;;;;104.40;34.50;;;-6.40;99.90;;;;;;5075137;28;20028;-77
2020/12/03 02:09:07;;;;;;;98.37;35.00;;;-6.40;99.90;;;;;;5075352;28;20046;-77
2020/12/03 02:11:33;;;;;;;88.28;34.03;;;-6.40;99.90;;;;;;5075630;28;20465;-77
2020/12/03 02:14:04;;;;;;;107.03;35.53;;;-6.30;99.90;;;;;;5075477;28;20113;-77
2020/12/03 02:16:33;;;;;;;100.28;35.20;;;-6.40;99.90;;;;;;5075300;28;20048;-77
2020/12/03 02:18:58;;;;;;;93.37;33.00;;;-6.40;99.90;;;;;;5074460;28;20016;-77
2020/12/03 02:21:24;;;;;;;105.00;35.23;;;-6.40;99.90;;;;;;5075382;28;20044;-77
2020/12/03 02:23:50;;;;;;;92.13;33.17;;;-6.40;99.90;;;;;;5075206;28;20558;-77
2020/12/03 02:26:17;;;;;;;87.97;30.83;;;-6.30;99.90;;;;;;5075276;28;20036;-77
2020/12/03 02:28:43;;;;;;;92.83;32.80;;;-6.30;99.90;;;;;;5075026;28;20379;-77
2020/12/03 02:31:09;;;;;;;96.57;32.47;;;-6.40;99.90;;;;;;5075150;28;20028;-77
2020/12/03 02:33:38;;;;;;;88.17;31.03;;;-6.40;99.90;;;;;;5073840;28;20016;-77
2020/12/03 02:36:05;;;;;;;91.70;35.80;;;-6.40;99.90;;;;;;5074996;28;20016;-77
2020/12/03 02:38:31;;;;;;;90.13;32.53;;;-6.40;99.90;;;;;;5075018;28;20038;-77
2020/12/03 02:40:58;;;;;;;110.07;36.27;;;-6.40;99.90;;;;;;5073704;28;20474;-77
2020/12/03 02:43:24;;;;;;;101.23;35.53;;;-6.40;99.90;;;;;;5074796;28;20086;-76
2020/12/03 02:45:50;;;;;;;101.80;36.97;;;-6.40;99.90;;;;;;5074673;28;20033;-76
2020/12/03 02:48:15;;;;;;;105.18;35.53;;;-6.30;99.90;;;;;;5073478;28;20024;-76
2020/12/03 02:50:41;;;;;;;100.28;35.75;;;-6.30;99.90;;;;;;5074875;28;20035;-77
2020/12/03 02:53:07;;;;;;;138.33;40.87;;;-6.30;99.90;;;;;;5074613;28;20067;-77
2020/12/03 02:55:32;;;;;;;106.60;38.67;;;-6.30;99.90;;;;;;5073418;28;20017;-77
2020/12/03 02:57:58;;;;;;;115.07;34.87;;;-6.40;99.90;;;;;;5074595;28;20024;-77
2020/12/03 03:00:23;;;;;;;94.33;32.93;;;-6.40;99.90;;;;;;5074584;28;20074;-77
2020/12/03 03:02:49;;;;;;;89.23;33.90;;;-6.40;99.90;;;;;;5074396;28;20494;-77
2020/12/03 03:05:15;;;;;;;88.27;32.10;;;-6.40;99.90;;;;;;5074585;28;20027;-77
2020/12/03 03:07:41;;;;;;;84.60;31.30;;;-6.30;99.90;;;;;;5074008;28;20030;-77
2020/12/03 03:10:07;;;;;;;95.40;34.92;;;-6.40;99.90;;;;;;5072336;28;20029;-77
2020/12/03 03:12:32;;;;;;;97.20;33.35;;;-6.30;99.90;;;;;;5074335;28;20521;-77
2020/12/03 03:14:58;;;;;;;95.00;34.03;;;-6.20;99.90;;;;;;5074329;28;20020;-76
2020/12/03 03:17:24;;;;;;;112.07;37.83;;;-6.20;99.90;;;;;;5074143;28;20501;-77
2020/12/03 03:19:49;;;;;;;102.17;34.57;;;-6.20;99.90;;;;;;5074232;28;20111;-77
2020/12/03 03:22:15;;;;;;;84.80;31.07;;;-6.20;99.90;;;;;;5074384;28;20060;-77
2020/12/03 03:24:41;;;;;;;99.80;31.53;;;-6.20;99.90;;;;;;5072613;28;20046;-77
2020/12/03 03:27:07;;;;;;;87.50;32.28;;;-6.30;99.90;;;;;;5073929;28;20024;-76
2020/12/03 03:29:33;;;;;;;92.33;33.77;;;-6.30;99.90;;;;;;5072707;28;20077;-76
2020/12/03 03:31:58;;;;;;;103.00;34.73;;;-6.20;99.90;;;;;;5073897;28;20048;-77
2020/12/03 03:34:24;;;;;;;76.50;30.57;;;-6.20;99.90;;;;;;5072646;28;20476;-77
2020/12/03 03:36:50;;;;;;;87.60;34.63;;;-6.20;99.90;;;;;;5073588;28;20021;-77
2020/12/03 03:39:22;;;;;;;98.10;35.07;;;-6.20;99.90;;;;;;5073827;28;20044;-77
2020/12/03 03:41:48;;;;;;;;;;;-6.20;99.90;;;;;;5074131;28;20036;-77
2020/12/03 03:44:14;;;;;;;100.97;34.00;;;-6.20;99.90;;;;;;5089253;28;20382;-77
2020/12/03 03:46:40;;;;;;;105.93;37.63;;;-6.20;99.90;;;;;;5072333;28;20044;-77
2020/12/03 03:49:06;;;;;;;98.07;37.43;;;-6.20;99.90;;;;;;5072301;28;20106;-77
2020/12/03 03:51:31;;;;;;;95.60;35.25;;;-6.10;99.90;;;;;;5073644;28;20090;-77
2020/12/03 03:53:57;;;;;;;94.40;34.28;;;-6.20;99.90;;;;;;5073568;28;20028;-78
2020/12/03 03:56:22;;;;;;;94.63;34.37;;;-6.20;99.90;;;;;;5072204;28;20020;-77
2020/12/03 03:58:48;;;;;;;102.40;33.77;;;-6.20;99.90;;;;;;5073469;28;20027;-77
2020/12/03 04:01:14;;;;;;;89.80;34.70;;;-6.20;99.90;;;;;;5073394;28;20050;-77
2020/12/03 04:03:39;;;;;;;87.05;33.08;;;-6.30;99.90;;;;;;5073253;28;20033;-77
2020/12/03 04:06:05;;;;;;;91.73;32.30;;;-6.30;99.90;;;;;;5073321;28;20026;-76
2020/12/03 04:08:31;;;;;;;79.00;29.60;;;-6.30;99.90;;;;;;5073098;28;20229;-77
2020/12/03 04:10:57;;;;;;;94.17;34.17;;;-6.40;99.90;;;;;;5071999;28;20027;-77
2020/12/03 04:13:25;;;;;;;80.53;29.25;;;-6.40;99.90;;;;;;5073196;28;20037;-77
2020/12/03 04:15:51;;;;;;;88.17;30.60;;;-6.50;99.90;;;;;;5072946;28;20016;-77
2020/12/03 04:18:17;;;;;;;94.68;32.28;;;-6.50;99.90;;;;;;5073165;28;20027;-77
2020/12/03 04:20:43;;;;;;;91.13;34.57;;;-6.60;99.90;;;;;;5072226;28;20099;-76
2020/12/03 04:23:10;;;;;;;90.67;31.43;;;-6.60;99.90;;;;;;5071689;28;20132;-76
2020/12/03 04:25:35;;;;;;;92.83;33.47;;;-6.70;99.90;;;;;;5073031;28;20526;-77
2020/12/03 04:28:01;;;;;;;78.97;28.38;;;-6.70;99.90;;;;;;5073022;28;20103;-77
2020/12/03 04:30:27;;;;;;;89.97;35.03;;;-6.80;99.90;;;;;;5073006;28;20034;-77
2020/12/03 04:32:52;;;;;;;77.77;31.33;;;-6.80;99.90;;;;;;5072954;28;20158;-77
2020/12/03 04:35:19;;;;;;;93.80;34.20;;;-6.80;99.90;;;;;;5072955;28;20089;-77
2020/12/03 04:37:47;;;;;;;90.40;30.37;;;-6.90;99.90;;;;;;5072655;28;20024;-77
2020/12/03 04:40:29;;;;;;;83.87;29.93;;;-6.90;99.90;;;;;;5072855;28;20025;-77
2020/12/03 04:42:56;;;;;;;85.63;29.57;;;-7.00;99.90;;;;;;5071472;28;20082;-77
2020/12/03 04:45:38;;;;;;;86.70;30.30;;;-7.00;99.90;;;;;;5072854;28;20017;-76
2020/12/03 04:48:24;;;;;;;88.63;34.20;;;-7.00;99.90;;;;;;5071440;28;20112;-77
2020/12/03 04:51:16;;;;;;;100.17;33.33;;;-7.00;99.90;;;;;;5071582;28;20484;-77
2020/12/03 04:53:53;;;;;;;87.90;32.53;;;-7.00;99.90;;;;;;5071464;28;20025;-77
2020/12/03 04:56:32;;;;;;;95.37;35.17;;;-7.00;99.90;;;;;;5071521;28;20078;-76
2020/12/03 04:59:24;;;;;;;89.07;33.17;;;-6.90;99.90;;;;;;5071464;28;20482;-76
2020/12/03 05:02:15;;;;;;;74.77;29.87;;;-6.90;99.90;;;;;;5072654;28;20021;-77
2020/12/03 05:05:03;;;;;;;81.93;32.13;;;-6.90;99.90;;;;;;5072591;28;20119;-77
2020/12/03 05:07:29;;;;;;;112.63;40.77;;;-6.80;99.90;;;;;;5052811;28;20098;-77
2020/12/03 05:10:12;;;;;;;91.63;32.93;;;-6.70;99.90;;;;;;5052570;28;20025;-77
2020/12/03 05:12:41;;;;;;;81.50;32.30;;;-6.70;99.90;;;;;;5052600;28;20032;-77
2020/12/03 05:15:34;;;;;;;84.13;30.27;;;-6.70;99.90;;;;;;5051277;28;20044;-76
2020/12/03 05:18:18;;;;;;;81.20;33.47;;;-6.60;99.90;;;;;;5050059;28;20112;-77
2020/12/03 05:20:52;;;;;;;91.37;32.17;;;-6.60;99.90;;;;;;5051792;28;20459;-77
2020/12/03 05:23:18;;;;;;;95.95;33.95;;;-6.60;99.90;;;;;;5051138;28;20033;-76
2020/12/03 05:25:45;;;;;;;99.03;32.90;;;-6.60;99.90;;;;;;5051152;28;20029;-77
2020/12/03 05:28:43;;;;;;;97.57;36.57;;;-6.60;99.90;;;;;;5051041;28;20108;-77
2020/12/03 05:31:20;;;;;;;108.73;36.13;;;-6.50;99.90;;;;;;5065033;28;20040;-77
2020/12/03 05:33:46;;;;;;;105.80;38.67;;;-6.50;99.90;;;;;;5076247;28;20028;-77
2020/12/03 05:36:53;;;;;;;90.37;34.50;;;-6.50;99.90;;;;;;5074653;28;20035;-76
2020/12/03 05:39:33;;;;;;;100.77;34.43;;;-6.40;99.90;;;;;;5074885;28;20028;-77
2020/12/03 05:42:03;;;;;;;98.87;37.70;;;-6.50;99.90;;;;;;5076027;28;20156;-77
2020/12/03 05:44:38;;;;;;;97.57;35.87;;;-6.50;99.90;;;;;;5076261;28;20517;-77
2020/12/03 05:47:20;;;;;;;95.70;34.60;;;-6.40;99.90;;;;;;5074388;28;20029;-77
2020/12/03 05:49:46;;;;;;;85.50;29.58;;;-6.40;99.90;;;;;;5074516;28;20029;-77
2020/12/03 05:52:18;;;;;;;96.63;32.10;;;-6.40;99.90;;;;;;5075851;28;20103;-77
2020/12/03 05:54:59;;;;;;;97.53;33.90;;;-6.50;99.90;;;;;;5075954;28;20052;-77
2020/12/03 05:57:33;;;;;;;90.37;33.20;;;-6.50;99.90;;;;;;5075762;28;20021;-77
2020/12/03 06:00:13;;;;;;;102.77;33.20;;;-6.50;99.90;;;;;;5075803;28;20033;-77
2020/12/03 06:02:58;;;;;;;99.87;33.40;;;-6.50;99.90;;;;;;5074338;28;20104;-77
2020/12/03 06:05:32;;;;;;;91.10;35.50;;;-6.50;99.90;;;;;;5074077;28;20055;-77
2020/12/03 06:08:28;;;;;;;49.43;20.53;;;-6.50;99.90;;;;;;5074387;28;20070;-77
2020/12/03 06:11:19;;;;;;;86.20;32.17;;;-6.50;99.90;;;;;;5070875;28;20029;-77
2020/12/03 06:13:51;;;;;;;105.77;38.50;;;-6.50;99.90;;;;;;5073354;28;20035;-77
2020/12/03 06:16:38;;;;;;;105.53;38.53;;;-6.50;99.90;;;;;;5071520;28;20020;-77
2020/12/03 06:19:26;;;;;;;97.70;38.03;;;-6.40;99.90;;;;;;5072484;28;20024;-77
2020/12/03 06:22:19;;;;;;;108.60;40.65;;;-6.40;99.90;;;;;;5075642;28;20032;-77
2020/12/03 06:25:00;;;;;;;101.20;37.20;;;-6.40;99.90;;;;;;5075381;28;20110;-77
2020/12/03 06:27:37;;;;;;;96.90;34.03;;;-6.40;99.90;;;;;;5076221;28;20382;-77
2020/12/03 06:30:27;;;;;;;106.53;35.87;;;-6.40;99.90;;;;;;5075194;28;20501;-77
2020/12/03 06:33:11;;;;;;;101.50;38.08;;;-6.40;99.90;;;;;;5073782;28;20056;-77
2020/12/03 06:35:53;;;;;;;88.57;37.85;;;-6.40;99.90;;;;;;5074708;28;20111;-77
2020/12/03 06:38:44;;;;;;;100.00;37.60;;;-6.30;99.90;;;;;;5075084;28;20024;-77
2020/12/03 06:41:39;;;;;;;106.23;41.07;;;-6.30;99.90;;;;;;5072903;28;20055;-77
2020/12/03 06:44:18;;;;;;;106.57;37.77;;;-6.30;99.90;;;;;;5072817;28;20060;-77
2020/12/03 06:46:56;;;;;;;98.05;35.50;;;-6.30;99.90;;;;;;5074707;28;20016;-78
2020/12/03 06:49:36;;;;;;;94.05;32.72;;;-6.20;99.90;;;;;;5072830;28;20131;-77
2020/12/03 06:52:39;;;;;;;111.88;40.60;;;-6.20;99.90;;;;;;5070630;28;20060;-78
2020/12/03 06:55:42;;;;;;;88.30;31.83;;;-6.20;99.90;;;;;;5071088;28;20028;-78
2020/12/03 06:58:32;;;;;;;85.55;35.05;;;-6.20;99.90;;;;;;5071812;28;20036;-78
2020/12/03 07:01:21;;;;;;;99.72;36.53;;;-6.10;99.90;;;;;;5073951;28;20024;-78
2020/12/03 07:04:22;;;;;;;85.53;33.23;;;-6.00;99.90;;;;;;5074590;28;20040;-78
2020/12/03 07:07:00;;;;;;;118.43;42.23;;;-5.90;99.90;;;;;;5074224;28;20055;-77
2020/12/03 07:10:03;;;;;;;115.27;41.13;;;-5.90;99.90;;;;;;5073067;28;20024;-78
2020/12/03 07:12:56;;;;;;;82.38;30.17;;;-5.80;99.90;;;;;;5073999;28;20031;-78
2020/12/03 07:15:21;;;;;;;;;;;-5.80;99.90;;;;;;5071850;28;20354;-78
2020/12/03 07:18:24;;;;;;;94.40;30.60;;;-5.90;99.90;;;;;;5074030;28;19958;-78
2020/12/03 07:21:14;;;;;;;74.17;28.37;;;-5.90;99.90;;;;;;5074229;28;20074;-78
2020/12/03 07:23:43;;;;;;;87.95;32.72;;;-5.80;99.90;;;;;;5074109;28;20078;-78
2020/12/03 07:26:30;;;;;;;81.57;34.27;;;-5.70;99.90;;;;;;5072788;28;20078;-77
2020/12/03 07:28:59;;;;;;;77.70;33.50;;;-5.70;99.90;;;;;;5070714;28;20474;-78
2020/12/03 07:31:38;;;;;;;87.20;34.33;;;-5.60;99.90;;;;;;5071973;28;20109;-78
2020/12/03 07:34:16;;;;;;;96.70;37.28;;;-5.60;99.90;;;;;;5071130;28;20021;-78
2020/12/03 07:37:19;;;;;;;86.85;34.83;;;-5.50;99.90;;;;;;5073548;28;20020;-78
2020/12/03 07:39:49;;;;;;;86.25;32.72;;;-5.30;99.90;;;;;;5072611;28;20098;-78
2020/12/03 07:42:20;;;;;;;83.18;34.28;;;-5.20;99.90;;;;;;5072414;28;20051;-76
2020/12/03 07:44:50;;;;;;;76.90;29.07;;;-5.10;99.90;;;;;;5072457;28;20052;-76
2020/12/03 07:47:32;;;;;;;92.20;34.47;;;-5.10;99.90;;;;;;5072320;28;20044;-76
2020/12/03 07:50:06;;;;;;;77.25;31.20;;;-5.10;99.90;;;;;;5073634;28;20024;-76
2020/12/03 07:52:37;;;;;;;74.20;32.90;;;-5.00;99.90;;;;;;5072381;28;20028;-76
2020/12/03 07:55:21;;;;;;;82.50;34.40;;;-5.00;99.90;;;;;;5071227;28;20025;-76
2020/12/03 07:58:01;;;;;;;69.88;30.58;;;-5.00;99.90;;;;;;5071040;28;20056;-78
2020/12/03 08:00:30;;;;;;;70.53;27.77;;;-4.90;99.90;;;;;;5073512;28;20070;-77
2020/12/03 08:03:00;;;;;;;89.32;35.03;;;-4.80;99.90;;;;;;5071951;28;20044;-77
2020/12/03 08:05:44;;;;;;;84.00;36.03;;;-4.70;99.90;;;;;;5073512;28;20028;-77
2020/12/03 08:08:22;;;;;;;82.53;32.72;;;-4.60;99.90;;;;;;5072825;28;20145;-77
2020/12/03 08:10:49;;;;;;;79.53;33.05;;;-4.50;99.90;;;;;;5073309;28;20370;-78
2020/12/03 08:13:41;;;;;;;68.45;31.17;;;-4.40;99.90;;;;;;5073215;28;20032;-77
2020/12/03 08:16:12;;;;;;;71.28;30.13;;;-4.40;99.90;;;;;;5072868;28;20078;-77
2020/12/03 08:18:46;;;;;;;75.03;29.35;;;-4.30;99.90;;;;;;5073187;28;20532;-77
2020/12/03 08:21:15;;;;;;;79.45;31.95;;;-4.20;99.90;;;;;;5073443;28;20020;-77
2020/12/03 08:23:49;;;;;;;70.78;30.15;;;-4.10;99.90;;;;;;5072598;28;20539;-77
2020/12/03 08:26:27;;;;;;;74.07;31.33;;;-4.00;99.90;;;;;;5072200;28;20110;-78
2020/12/03 08:28:54;;;;;;;71.28;30.40;;;-4.00;99.90;;;;;;5071797;28;20473;-78
2020/12/03 08:31:19;;;;;;;63.15;26.33;;;-4.00;99.90;;;;;;5071586;28;20016;-78
2020/12/03 08:33:51;;;;;;;73.07;30.90;;;-3.90;99.90;;;;;;5072887;28;20107;-78
2020/12/03 08:36:17;;;;;;;75.25;33.30;;;-3.80;99.90;;;;;;5073006;28;20025;-78
2020/12/03 08:38:51;;;;;;;64.43;27.83;;;-3.70;99.90;;;;;;5072613;28;20436;-78
2020/12/03 08:41:18;;;;;;;66.85;28.55;;;-3.70;99.90;;;;;;5071688;28;20417;-77
2020/12/03 08:43:51;;;;;;;60.25;23.80;;;-3.60;99.90;;;;;;5071432;28;20047;-78
2020/12/03 08:46:20;;;;;;;53.33;24.30;;;-3.50;99.90;;;;;;5073011;28;20062;-77
2020/12/03 08:48:46;;;;;;;52.97;26.58;;;-3.50;99.90;;;;;;5072762;28;20020;-78
2020/12/03 08:51:13;;;;;;;57.55;25.90;;;-3.60;99.90;;;;;;5071739;28;20024;-78
2020/12/03 08:53:44;;;;;;;62.13;23.98;;;-3.60;99.90;;;;;;5072494;28;20017;-78
2020/12/03 08:56:18;;;;;;;47.15;21.73;;;-3.70;99.90;;;;;;5073013;28;20069;-78
2020/12/03 08:59:05;;;;;;;60.25;26.75;;;-3.80;99.90;;;;;;5072643;28;20066;-78
2020/12/03 09:01:49;;;;;;;65.80;24.80;;;-3.80;99.90;;;;;;5072680;28;20017;-78
2020/12/03 09:04:23;;;;;;;49.17;21.67;;;-3.70;99.90;;;;;;5055206;28;20033;-78
2020/12/03 09:06:52;;;;;;;54.53;25.23;;;-3.70;99.90;;;;;;5073651;28;20021;-77
2020/12/03 09:09:23;;;;;;;55.30;24.48;;;-3.60;99.90;;;;;;5076295;28;20024;-78
2020/12/03 09:11:50;;;;;;;53.47;25.73;;;-3.40;99.90;;;;;;5075449;28;20485;-78
2020/12/03 09:14:16;;;;;;;58.67;25.40;;;-3.30;99.90;;;;;;5076656;28;20028;-78
2020/12/03 09:16:45;;;;;;;56.58;24.88;;;-3.10;99.90;;;;;;5076329;28;20025;-78
2020/12/03 09:19:10;;;;;;;55.58;24.48;;;-2.90;99.90;;;;;;5075329;28;20020;-78
2020/12/03 09:21:38;;;;;;;55.45;23.75;;;-2.90;99.90;;;;;;5076535;28;20151;-78
2020/12/03 09:24:05;;;;;;;54.17;24.83;;;-2.80;99.90;;;;;;5076345;28;20047;-78
2020/12/03 09:26:33;;;;;;;51.28;24.35;;;-2.80;99.90;;;;;;5075123;28;20027;-78
2020/12/03 09:29:03;;;;;;;54.50;25.42;;;-2.80;99.90;;;;;;5076413;28;20052;-78
2020/12/03 09:31:35;;;;;;;59.72;25.52;;;-2.70;99.90;;;;;;5075080;28;20103;-78
2020/12/03 09:34:01;;;;;;;52.83;23.57;;;-2.60;99.90;;;;;;5074976;28;20027;-78
2020/12/03 09:36:47;;;;;;;48.08;23.48;;;-2.60;99.90;;;;;;5076442;28;20077;-78
2020/12/03 09:39:13;;;;;;;43.40;21.35;;;-2.60;99.90;;;;;;5074548;28;20112;-78
2020/12/03 09:41:42;;;;;;;53.78;23.67;;;-2.70;99.90;;;;;;5076035;28;20032;-78
2020/12/03 09:44:14;;;;;;;50.38;21.58;;;-2.80;99.90;;;;;;5075890;28;20082;-78
2020/12/03 09:46:45;;;;;;;50.50;22.20;;;-2.80;99.90;;;;;;5075739;28;20055;-78
2020/12/03 09:49:15;;;;;;;52.05;22.65;;;-2.90;99.90;;;;;;5075720;28;20032;-78
2020/12/03 09:51:42;;;;;;;48.65;24.10;;;-2.80;99.90;;;;;;5075864;28;20035;-78
2020/12/03 09:54:09;;;;;;;61.28;24.95;;;-2.80;99.90;;;;;;5076145;28;20048;-78
2020/12/03 09:56:39;;;;;;;51.92;24.77;;;-2.80;99.90;;;;;;5075775;28;20025;-78
2020/12/03 09:59:07;;;;;;;57.08;23.42;;;-2.80;99.90;;;;;;5076005;28;20066;-78
2020/12/03 10:02:00;;;;;;;50.42;23.30;;;-2.80;99.90;;;;;;5075657;28;20020;-78
2020/12/03 10:04:50;;;;;;;57.30;25.98;;;-2.80;99.90;;;;;;5074353;28;20028;-78
2020/12/03 10:07:37;;;;;;;54.22;24.42;;;-2.70;99.90;;;;;;5074199;28;20038;-78
2020/12/03 10:10:15;;;;;;;51.67;24.80;;;-2.70;99.90;;;;;;5075737;28;20059;-78
2020/12/03 10:12:49;;;;;;;52.45;22.65;;;-2.70;99.90;;;;;;5070091;28;20039;-78
2020/12/03 10:15:30;;;;;;;42.10;20.40;;;-2.60;99.90;;;;;;5090018;28;20024;-78
2020/12/03 10:18:04;;;;;;;53.85;26.77;;;-2.50;99.90;;;;;;5048767;28;20025;-76
2020/12/03 10:20:32;;;;;;;49.10;20.67;;;-2.50;99.90;;;;;;5055412;28;20021;-76
2020/12/03 10:23:19;;;;;;;54.38;24.38;;;-2.50;99.90;;;;;;5060980;28;20037;-76
2020/12/03 10:25:58;;;;;;;44.10;21.17;;;-2.40;99.90;;;;;;5057132;28;20033;-76
2020/12/03 10:28:29;;;;;;;55.40;23.35;;;-2.30;99.90;;;;;;5066371;28;20067;-76
2020/12/03 10:30:55;;;;;;;49.55;23.00;;;-2.20;99.90;;;;;;5073907;28;20382;-76
2020/12/03 10:33:25;;;;;;;50.78;23.80;;;-2.20;99.90;;;;;;5060428;28;20040;-76
2020/12/03 10:35:54;;;;;;;50.58;23.02;;;-2.10;99.90;;;;;;5054508;28;20028;-76
2020/12/03 10:38:24;;;;;;;46.58;21.77;;;-2.10;99.90;;;;;;5054730;28;20524;-78
2020/12/03 10:40:55;;;;;;;47.85;23.52;;;-2.10;99.90;;;;;;5053512;28;20021;-77
2020/12/03 10:43:28;;;;;;;49.92;22.35;;;-2.00;99.90;;;;;;5053377;28;20504;-77
2020/12/03 10:46:00;;;;;;;;;;;-2.00;99.90;;;;;;5068425;28;20420;-77
2020/12/03 10:48:30;;;;;;;56.88;24.33;;;-2.00;99.90;;;;;;5074527;28;20003;-77
2020/12/03 10:51:08;;;;;;;53.97;25.10;;;-2.00;99.90;;;;;;5073611;28;20024;-77
2020/12/03 10:53:36;;;;;;;50.00;23.33;;;-2.00;99.90;;;;;;5073548;28;20020;-77
2020/12/03 10:56:06;;;;;;;59.50;24.98;;;-2.00;99.90;;;;;;5073415;28;20028;-77
2020/12/03 10:58:39;;;;;;;49.92;23.58;;;-1.90;99.90;;;;;;5074682;28;20391;-77
2020/12/03 11:01:08;;;;;;;50.08;23.15;;;-1.90;99.90;;;;;;5074608;28;20056;-77
2020/12/03 11:03:37;;;;;;;55.53;22.60;;;-1.80;99.90;;;;;;5074519;28;20043;-77
2020/12/03 11:06:03;;;;;;;53.35;23.48;;;-1.80;99.90;;;;;;5073236;28;20545;-77
2020/12/03 11:08:37;;;;;;;57.80;23.98;;;-1.70;99.90;;;;;;5073287;28;20042;-77
2020/12/03 11:11:04;;;;;;;55.45;22.83;;;-1.70;99.90;;;;;;5073164;28;20046;-77
2020/12/03 11:13:30;;;;;;;49.47;24.10;;;-1.80;99.90;;;;;;5073114;28;20028;-77
2020/12/03 11:15:58;;;;;;;48.83;23.10;;;-1.80;99.90;;;;;;5074094;28;20059;-77
2020/12/03 11:18:26;;;;;;;51.03;24.25;;;-1.80;99.90;;;;;;5074262;28;20470;-77
2020/12/03 11:20:59;;;;;;;50.30;22.20;;;-1.70;99.90;;;;;;5072434;28;20068;-77
2020/12/03 11:23:29;;;;;;;55.28;23.60;;;-1.80;99.90;;;;;;5074047;28;20054;-77
2020/12/03 11:26:04;;;;;;;51.30;23.02;;;-1.80;99.90;;;;;;5074162;28;20044;-77
2020/12/03 11:28:31;;;;;;;57.45;26.15;;;-1.90;99.90;;;;;;5073883;28;20021;-77
2020/12/03 11:31:02;;;;;;;59.70;26.88;;;-1.80;99.90;;;;;;5073484;28;20017;-77
2020/12/03 11:33:29;;;;;;;61.13;27.95;;;-1.70;99.90;;;;;;5073911;28;20048;-77
2020/12/03 11:36:12;;;;;;;60.05;29.10;;;-1.70;99.90;;;;;;5073847;28;20044;-77
2020/12/03 11:38:39;;;;;;;;;;;-1.70;99.90;;;;;;5074358;28;20032;-77
2020/12/03 11:41:17;;;;;;;62.33;26.48;;;-1.70;99.90;;;;;;5073806;28;19969;-77
2020/12/03 11:48:54;;;;;;;52.90;24.48;;;-1.60;99.90;;;;;;5073997;28;20469;-77
2020/12/03 11:51:37;;;;;;;52.90;25.45;;;-1.60;99.90;;;;;;5073699;28;20389;-77
2020/12/03 11:54:03;;;;;;;54.22;26.55;;;-1.70;99.90;;;;;;5072355;28;20055;-77
2020/12/03 11:56:30;;;;;;;56.03;25.75;;;-1.70;99.90;;;;;;5072260;28;20402;-77
2020/12/03 11:59:21;;;;;;;55.70;25.83;;;-1.70;99.90;;;;;;5072856;28;20029;-77
2020/12/03 12:01:55;;;;;;;43.78;21.27;;;-1.70;99.90;;;;;;5072142;28;20024;-77
2020/12/03 12:04:26;;;;;;;55.85;25.58;;;-1.80;99.90;;;;;;5073415;28;20056;-77
2020/12/03 12:07:09;;;;;;;50.38;25.60;;;-1.90;99.90;;;;;;5073052;28;20036;-77
2020/12/03 12:12:14;;;;;;;53.95;25.63;;;-1.80;99.90;;;;;;5073481;28;20025;-77
2020/12/03 12:14:40;;;;;;;56.78;26.30;;;-1.80;99.90;;;;;;5072070;28;20486;-77
2020/12/03 12:17:06;;;;;;;56.17;26.35;;;-1.80;99.90;;;;;;5073137;28;20023;-77
2020/12/03 12:19:33;;;;;;;49.35;23.13;;;-1.80;99.90;;;;;;5071952;28;20539;-77
2020/12/03 12:21:59;;;;;;;59.38;25.65;;;-1.80;99.90;;;;;;5071911;28;20030;-78
2020/12/03 12:24:25;;;;;;;55.72;25.00;;;-1.70;99.90;;;;;;5071822;28;20032;-77
2020/12/03 12:26:50;;;;;;;52.03;26.85;;;-1.70;99.90;;;;;;5071768;28;20028;-77
2020/12/03 12:29:16;;;;;;;64.72;26.80;;;-1.70;99.90;;;;;;5072798;28;20028;-77
2020/12/03 12:31:42;;;;;;;63.35;26.70;;;-1.70;99.90;;;;;;5072934;28;20402;-77
2020/12/03 12:34:29;;;;;;;67.50;29.42;;;-1.70;99.90;;;;;;5072958;28;20032;-77
2020/12/03 12:36:55;;;;;;;79.80;31.08;;;-1.70;99.90;;;;;;5072902;28;20117;-77
2020/12/03 12:39:20;;;;;;;64.63;31.75;;;-1.70;99.90;;;;;;5071688;28;20062;-77
2020/12/03 12:42:03;;;;;;;62.75;27.73;;;-1.60;99.90;;;;;;5071952;28;20031;-77
2020/12/03 12:44:29;;;;;;;;;;;-1.60;99.90;;;;;;5073260;28;20032;-77
2020/12/03 12:46:56;;;;;;;65.30;29.17;;;-1.60;99.90;;;;;;5072780;28;20362;-77
2020/12/03 12:49:22;;;;;;;66.95;27.65;;;-1.60;99.90;;;;;;5072867;28;20028;-77
2020/12/03 12:51:48;;;;;;;82.53;34.13;;;-1.60;99.90;;;;;;5071449;28;20035;-77
2020/12/03 12:54:14;;;;;;;74.00;30.25;;;-1.60;99.90;;;;;;5072842;28;20029;-77
2020/12/03 12:56:40;;;;;;;86.57;39.88;;;-1.60;99.90;;;;;;5071440;28;20055;-77
2020/12/03 12:59:06;;;;;;;77.78;35.10;;;-1.60;99.90;;;;;;5072434;28;20486;-77
2020/12/03 13:01:32;;;;;;;69.90;37.08;;;-1.60;99.90;;;;;;5072508;28;20063;-77